createdAt,value
2023-10-19T00:00:46.815Z,96917.84
2023-10-19T00:01:48.618Z,96915.28
2023-10-19T00:02:55.238Z,96915.69
2023-10-19T00:04:00.344Z,96919.06
2023-10-19T00:05:02.119Z,96917.25
2023-10-19T00:06:03.929Z,96907.59
2023-10-19T00:07:07.859Z,96901.72
2023-10-19T00:08:22.108Z,96898.97
2023-10-19T00:09:23.978Z,96899.34
2023-10-19T00:10:30.079Z,96900.25
2023-10-19T00:11:32.512Z,96898.47
2023-10-19T00:12:34.110Z,96895.25
2023-10-19T00:13:37.215Z,96895.38
2023-10-19T00:14:38.924Z,96890.34
2023-10-19T00:15:54.816Z,96897.72
2023-10-19T00:17:01.767Z,96882.31
2023-10-19T00:18:18.833Z,96887.31
2023-10-19T00:19:21.905Z,96886.25
2023-10-19T00:20:58.730Z,96896.75
2023-10-19T00:22:09.561Z,96897.13
2023-10-19T00:23:11.249Z,96891.53
2023-10-19T00:24:17.969Z,96892.16
2023-10-19T00:25:19.737Z,96887.06
2023-10-19T00:26:21.577Z,96885.09
2023-10-19T00:27:24.591Z,96887.03
2023-10-19T00:28:28.415Z,96884.44
2023-10-19T00:29:34.044Z,96888.09
2023-10-19T00:30:38.509Z,96888.59
2023-10-19T00:31:42.153Z,96876.66
2023-10-19T00:32:43.827Z,96879.66
2023-10-19T00:33:46.587Z,96873.81
2023-10-19T00:34:54.892Z,96868.34
2023-10-19T00:36:07.533Z,96875.66
2023-10-19T00:37:09.067Z,96866.22
2023-10-19T00:38:39.640Z,96870.00
2023-10-19T00:39:44.967Z,96881.00
2023-10-19T00:41:08.084Z,96871.66
2023-10-19T00:42:09.861Z,96868.22
2023-10-19T00:43:13.368Z,96869.44
2023-10-19T00:44:37.028Z,96870.72
2023-10-19T00:45:41.309Z,96867.50
2023-10-19T00:46:43.040Z,96858.56
2023-10-19T00:47:44.746Z,96862.31
2023-10-19T00:48:54.582Z,96860.13
2023-10-19T00:49:56.435Z,96860.13
2023-10-19T00:51:08.285Z,96857.75
2023-10-19T00:52:13.062Z,96861.03
2023-10-19T00:53:15.572Z,96861.94
2023-10-19T00:54:28.277Z,96864.44
2023-10-19T00:55:30.114Z,96858.69
2023-10-19T00:56:34.031Z,96859.94
2023-10-19T00:57:37.651Z,96851.78
2023-10-19T00:58:42.475Z,96857.91
2023-10-19T00:59:44.851Z,96854.50
2023-10-19T01:00:46.514Z,96855.69
2023-10-19T01:01:54.939Z,96854.66
2023-10-19T01:03:01.396Z,96847.97
2023-10-19T01:04:05.446Z,96848.88
2023-10-19T01:05:07.572Z,96852.13
2023-10-19T01:06:13.638Z,96850.50
2023-10-19T01:07:23.227Z,96848.06
2023-10-19T01:08:26.456Z,96856.03
2023-10-19T01:09:29.680Z,96858.59
2023-10-19T01:10:33.065Z,96853.94
2023-10-19T01:11:36.178Z,96857.53
2023-10-19T01:12:40.708Z,96854.63
2023-10-19T01:13:46.024Z,96859.00
2023-10-19T01:15:09.089Z,96851.84
2023-10-19T01:16:17.226Z,96846.47
2023-10-19T01:17:19.598Z,96848.84
2023-10-19T01:18:21.195Z,96849.63
2023-10-19T01:19:24.528Z,96845.69
2023-10-19T01:20:30.667Z,96838.53
2023-10-19T01:21:39.168Z,96839.44
2023-10-19T01:22:50.817Z,96845.78
2023-10-19T01:23:53.840Z,96848.16
2023-10-19T01:24:56.740Z,96844.47
2023-10-19T01:26:00.039Z,96844.56
2023-10-19T01:27:01.782Z,96842.34
2023-10-19T01:28:08.899Z,96840.13
2023-10-19T01:29:18.805Z,96841.34
2023-10-19T01:30:20.365Z,96850.63
2023-10-19T01:31:45.830Z,96842.78
2023-10-19T01:32:47.532Z,96850.41
2023-10-19T01:33:50.454Z,96845.84
2023-10-19T01:34:52.048Z,96838.91
2023-10-19T01:36:12.104Z,96844.47
2023-10-19T01:37:13.973Z,96847.59
2023-10-19T01:38:16.546Z,96840.56
2023-10-19T01:39:20.011Z,96839.88
2023-10-19T01:40:22.242Z,96845.78
2023-10-19T01:41:27.460Z,96842.97
2023-10-19T01:42:29.095Z,96842.31
2023-10-19T01:43:34.036Z,96832.88
2023-10-19T01:44:37.454Z,96844.19
2023-10-19T01:45:39.087Z,96836.72
2023-10-19T01:46:41.264Z,96844.69
2023-10-19T01:47:44.132Z,96841.00
2023-10-19T01:48:45.850Z,96843.88
2023-10-19T01:49:53.444Z,96844.00
2023-10-19T01:50:55.120Z,96844.13
2023-10-19T01:51:57.454Z,96845.84
2023-10-19T01:52:59.662Z,96861.72
2023-10-19T01:54:04.275Z,96846.44
2023-10-19T01:55:10.250Z,96847.25
2023-10-19T01:56:17.839Z,96846.03
2023-10-19T01:57:19.589Z,96848.25
2023-10-19T01:58:21.208Z,96855.28
2023-10-19T01:59:28.594Z,96841.97
2023-10-19T02:00:30.237Z,96849.97
2023-10-19T02:01:33.525Z,96856.00
2023-10-19T02:02:36.630Z,96856.06
2023-10-19T02:03:39.095Z,96857.44
2023-10-19T02:04:42.139Z,96850.28
2023-10-19T02:05:44.558Z,96846.38
2023-10-19T02:06:49.499Z,96850.72
2023-10-19T02:07:51.210Z,96851.66
2023-10-19T02:08:57.351Z,96856.88
2023-10-19T02:09:59.159Z,96852.81
2023-10-19T02:11:04.112Z,96853.22
2023-10-19T02:12:07.859Z,96856.59
2023-10-19T02:13:09.852Z,96854.50
2023-10-19T02:14:17.181Z,96861.03
2023-10-19T02:15:18.813Z,96856.22
2023-10-19T02:16:24.107Z,96864.31
2023-10-19T02:17:26.325Z,96861.53
2023-10-19T02:18:27.991Z,96854.09
2023-10-19T02:19:30.803Z,96856.97
2023-10-19T02:20:40.470Z,96865.63
2023-10-19T02:21:43.623Z,96857.78
2023-10-19T02:22:45.329Z,96860.47
2023-10-19T02:23:46.956Z,96855.97
2023-10-19T02:24:48.584Z,96852.81
2023-10-19T02:25:50.970Z,96867.97
2023-10-19T02:26:56.573Z,96866.41
2023-10-19T02:27:58.170Z,96866.41
2023-10-19T02:29:00.009Z,96870.19
2023-10-19T02:30:02.227Z,96868.38
2023-10-19T02:31:20.192Z,96875.03
2023-10-19T02:32:22.124Z,96867.72
2023-10-19T02:33:23.854Z,96871.75
2023-10-19T02:34:25.633Z,96872.97
2023-10-19T02:35:28.807Z,96865.63
2023-10-19T02:36:32.003Z,96868.22
2023-10-19T02:37:33.721Z,96870.38
2023-10-19T02:38:35.338Z,96867.16
2023-10-19T02:39:36.975Z,96871.66
2023-10-19T02:40:42.060Z,96873.81
2023-10-19T02:41:51.441Z,96873.25
2023-10-19T02:42:54.725Z,96878.75
2023-10-19T02:44:03.462Z,96875.06
2023-10-19T02:45:06.338Z,96877.22
2023-10-19T02:46:08.630Z,96874.31
2023-10-19T02:47:10.640Z,96877.09
2023-10-19T02:48:14.042Z,96877.34
2023-10-19T02:49:19.771Z,96878.13
2023-10-19T02:50:24.853Z,96867.50
2023-10-19T02:51:27.232Z,96873.66
2023-10-19T02:52:28.819Z,96875.88
2023-10-19T02:53:30.581Z,96879.81
2023-10-19T02:54:36.120Z,96872.97
2023-10-19T02:55:38.094Z,96876.59
2023-10-19T02:56:40.121Z,96877.00
2023-10-19T02:57:47.813Z,96874.56
2023-10-19T02:58:52.363Z,96881.28
2023-10-19T02:59:53.977Z,96875.47
2023-10-19T03:00:56.341Z,96877.69
2023-10-19T03:02:08.508Z,96881.72
2023-10-19T03:03:10.442Z,96876.59
2023-10-19T03:04:13.622Z,96872.75
2023-10-19T03:05:15.842Z,96874.00
2023-10-19T03:06:23.928Z,96877.13
2023-10-19T03:07:25.621Z,96883.28
2023-10-19T03:08:27.882Z,96875.69
2023-10-19T03:09:29.610Z,96869.84
2023-10-19T03:10:43.529Z,96879.38
2023-10-19T03:11:45.656Z,96877.00
2023-10-19T03:12:48.211Z,96874.91
2023-10-19T03:13:51.485Z,96869.72
2023-10-19T03:14:53.193Z,96871.16
2023-10-19T03:15:54.763Z,96866.53
2023-10-19T03:17:05.427Z,96878.28
2023-10-19T03:18:07.225Z,96865.44
2023-10-19T03:19:08.924Z,96868.69
2023-10-19T03:20:13.940Z,96866.59
2023-10-19T03:21:15.522Z,96871.41
2023-10-19T03:22:18.345Z,96859.34
2023-10-19T03:23:21.834Z,96865.94
2023-10-19T03:24:42.272Z,96867.59
2023-10-19T03:26:12.938Z,96860.91
2023-10-19T03:27:25.209Z,96862.94
2023-10-19T03:28:27.610Z,96870.31
2023-10-19T03:29:39.749Z,96865.63
2023-10-19T03:30:41.453Z,96867.16
2023-10-19T03:31:46.698Z,96873.47
2023-10-19T03:32:48.481Z,96872.09
2023-10-19T03:33:56.863Z,96868.75
2023-10-19T03:35:00.479Z,96868.06
2023-10-19T03:36:02.189Z,96867.28
2023-10-19T03:37:07.658Z,96864.72
2023-10-19T03:38:15.937Z,96867.84
2023-10-19T03:39:19.044Z,96866.72
2023-10-19T03:40:30.806Z,96864.50
2023-10-19T03:41:37.019Z,96859.56
2023-10-19T03:42:48.069Z,96857.22
2023-10-19T03:43:50.870Z,96855.75
2023-10-19T03:44:56.193Z,96854.88
2023-10-19T03:46:00.246Z,96855.66
2023-10-19T03:47:12.981Z,96852.19
2023-10-19T03:48:17.367Z,96853.88
2023-10-19T03:49:21.010Z,96848.63
2023-10-19T03:50:22.781Z,96846.28
2023-10-19T03:51:26.253Z,96850.41
2023-10-19T03:52:31.648Z,96848.28
2023-10-19T03:53:34.047Z,96845.47
2023-10-19T03:54:41.319Z,96844.38
2023-10-19T03:55:44.850Z,96850.28
2023-10-19T03:56:46.603Z,96852.28
2023-10-19T03:57:51.599Z,96845.59
2023-10-19T03:58:53.405Z,96846.47
2023-10-19T03:59:57.786Z,96840.44
2023-10-19T04:01:06.215Z,96839.31
2023-10-19T04:02:14.071Z,96835.16
2023-10-19T04:03:18.386Z,96846.78
2023-10-19T04:04:21.613Z,96839.97
2023-10-19T04:05:27.702Z,96843.13
2023-10-19T04:06:29.367Z,96834.50
2023-10-19T04:07:34.270Z,96841.78
2023-10-19T04:08:36.479Z,96843.00
2023-10-19T04:09:57.987Z,96840.78
2023-10-19T04:13:35.785Z,96834.72
2023-10-19T04:14:44.176Z,96845.69
2023-10-19T04:15:46.922Z,96835.03
2023-10-19T04:16:50.276Z,96833.63
2023-10-19T04:17:51.959Z,96843.56
2023-10-19T04:18:55.687Z,96832.47
2023-10-19T04:19:57.340Z,96839.41
2023-10-19T04:20:59.614Z,96840.97
2023-10-19T04:22:01.281Z,96845.34
2023-10-19T04:23:07.998Z,96840.75
2023-10-19T04:24:10.728Z,96847.22
2023-10-19T04:25:13.911Z,96839.97
2023-10-19T04:26:19.701Z,96837.72
2023-10-19T04:27:24.584Z,96842.06
2023-10-19T04:28:32.537Z,96840.97
2023-10-19T04:29:34.474Z,96840.97
2023-10-19T04:30:38.247Z,96837.16
2023-10-19T04:31:55.925Z,96839.38
2023-10-19T04:32:59.140Z,96835.59
2023-10-19T04:34:10.628Z,96834.81
2023-10-19T04:35:22.554Z,96832.91
2023-10-19T04:36:24.319Z,96823.53
2023-10-19T04:37:26.056Z,96837.44
2023-10-19T04:38:34.411Z,96830.81
2023-10-19T04:39:37.376Z,96839.00
2023-10-19T04:40:39.189Z,96830.81
2023-10-19T04:41:42.473Z,96833.16
2023-10-19T04:42:45.328Z,96835.44
2023-10-19T04:43:51.430Z,96831.59
2023-10-19T04:44:53.433Z,96830.50
2023-10-19T04:45:55.113Z,96833.63
2023-10-19T04:46:56.868Z,96830.72
2023-10-19T04:47:58.707Z,96839.22
2023-10-19T04:49:00.751Z,96841.53
2023-10-19T04:50:07.031Z,96831.81
2023-10-19T04:51:12.671Z,96834.72
2023-10-19T04:52:14.636Z,96833.53
2023-10-19T04:53:16.245Z,96839.41
2023-10-19T04:54:18.581Z,96835.31
2023-10-19T04:55:20.343Z,96838.00
2023-10-19T04:56:22.804Z,96841.38
2023-10-19T04:57:24.389Z,96841.88
2023-10-19T04:58:26.003Z,96839.53
2023-10-19T04:59:27.625Z,96839.31
2023-10-19T05:00:29.400Z,96840.88
2023-10-19T05:01:31.142Z,96840.53
2023-10-19T05:02:32.855Z,96840.75
2023-10-19T05:03:35.623Z,96844.56
2023-10-19T05:04:37.410Z,96840.16
2023-10-19T05:05:39.722Z,96848.00
2023-10-19T05:06:41.317Z,96849.03
2023-10-19T05:07:43.803Z,96843.91
2023-10-19T05:08:45.475Z,96847.59
2023-10-19T05:09:47.561Z,96843.34
2023-10-19T05:10:49.736Z,96850.16
2023-10-19T05:11:54.544Z,96846.16
2023-10-19T05:12:56.340Z,96849.38
2023-10-19T05:13:58.022Z,96841.91
2023-10-19T05:14:59.877Z,96844.81
2023-10-19T05:16:01.466Z,96837.66
2023-10-19T05:17:06.611Z,96851.31
2023-10-19T05:18:08.375Z,96839.56
2023-10-19T05:19:10.993Z,96846.59
2023-10-19T05:20:12.956Z,96854.44
2023-10-19T05:21:14.572Z,96847.59
2023-10-19T05:22:17.237Z,96855.63
2023-10-19T05:23:21.118Z,96853.09
2023-10-19T05:24:22.836Z,96854.38
2023-10-19T05:25:24.884Z,96848.13
2023-10-19T05:26:27.248Z,96854.63
2023-10-19T05:27:28.775Z,96848.59
2023-10-19T05:28:31.082Z,96851.72
2023-10-19T05:29:34.413Z,96851.03
2023-10-19T05:30:36.802Z,96851.84
2023-10-19T05:31:38.476Z,96856.50
2023-10-19T05:32:40.220Z,96854.75
2023-10-19T05:33:42.039Z,96858.66
2023-10-19T05:34:43.690Z,96862.56
2023-10-19T05:35:45.280Z,96853.06
2023-10-19T05:36:49.916Z,96851.72
2023-10-19T05:37:51.802Z,96858.75
2023-10-19T05:38:53.426Z,96862.66
2023-10-19T05:39:55.033Z,96862.41
2023-10-19T05:40:58.570Z,96860.63
2023-10-19T05:42:02.552Z,96858.38
2023-10-19T05:43:05.210Z,96853.09
2023-10-19T05:44:07.015Z,96857.47
2023-10-19T05:45:14.304Z,96856.31
2023-10-19T05:46:19.840Z,96853.88
2023-10-19T05:47:21.561Z,96858.44
2023-10-19T05:48:24.466Z,96854.66
2023-10-19T05:49:26.176Z,96858.56
2023-10-19T05:50:29.655Z,96852.50
2023-10-19T05:51:31.724Z,96862.59
2023-10-19T05:52:33.404Z,96857.41
2023-10-19T05:53:35.070Z,96861.41
2023-10-19T05:54:37.778Z,96866.44
2023-10-19T05:55:41.012Z,96860.81
2023-10-19T05:56:42.683Z,96866.09
2023-10-19T05:57:45.510Z,96869.22
2023-10-19T05:58:49.930Z,96866.88
2023-10-19T05:59:51.569Z,96864.56
2023-10-19T06:00:53.572Z,96860.72
2023-10-19T06:01:55.627Z,96863.06
2023-10-19T06:02:58.900Z,96863.16
2023-10-19T06:04:00.621Z,96866.28
2023-10-19T06:05:02.254Z,96862.50
2023-10-19T06:06:03.992Z,96867.16
2023-10-19T06:07:05.652Z,96860.66
2023-10-19T06:08:07.294Z,96865.00
2023-10-19T06:09:12.304Z,96868.94
2023-10-19T06:10:23.526Z,96858.59
2023-10-19T06:11:29.279Z,96865.09
2023-10-19T06:12:32.358Z,96862.06
2023-10-19T06:13:34.144Z,96866.00
2023-10-19T06:14:35.779Z,96865.31
2023-10-19T06:15:37.787Z,96867.66
2023-10-19T06:16:39.536Z,96871.56
2023-10-19T06:17:42.245Z,96869.31
2023-10-19T06:18:44.981Z,96870.97
2023-10-19T06:19:47.164Z,96871.75
2023-10-19T06:20:51.683Z,96866.69
2023-10-19T06:21:53.362Z,96861.94
2023-10-19T06:22:57.439Z,96865.00
2023-10-19T06:23:59.535Z,96862.91
2023-10-19T06:25:01.175Z,96866.38
2023-10-19T06:26:12.418Z,96869.59
2023-10-19T06:27:14.088Z,96869.59
2023-10-19T06:28:16.456Z,96868.81
2023-10-19T06:29:18.041Z,96864.22
2023-10-19T06:30:20.687Z,96866.41
2023-10-19T06:31:22.412Z,96869.56
2023-10-19T06:32:24.303Z,96861.50
2023-10-19T06:33:26.100Z,96868.84
2023-10-19T06:34:28.434Z,96871.66
2023-10-19T06:35:33.025Z,96863.22
2023-10-19T06:36:35.076Z,96856.31
2023-10-19T06:37:36.871Z,96859.97
2023-10-19T06:38:38.517Z,96856.19
2023-10-19T06:39:42.350Z,96852.69
2023-10-19T06:40:44.038Z,96854.50
2023-10-19T06:41:46.224Z,96852.59
2023-10-19T06:42:48.527Z,96843.75
2023-10-19T06:43:50.277Z,96841.88
2023-10-19T06:44:54.523Z,96837.41
2023-10-19T06:45:56.891Z,96834.28
2023-10-19T06:46:58.598Z,96831.16
2023-10-19T06:48:05.105Z,96836.88
2023-10-19T06:49:07.129Z,96837.78
2023-10-19T06:50:11.078Z,96834.31
2023-10-19T06:51:12.993Z,96837.09
2023-10-19T06:52:14.629Z,96837.84
2023-10-19T06:53:16.310Z,96839.78
2023-10-19T06:54:17.874Z,96843.84
2023-10-19T06:55:23.897Z,96848.91
2023-10-19T06:56:25.955Z,96848.78
2023-10-19T06:57:28.626Z,96860.00
2023-10-19T06:58:30.705Z,96855.09
2023-10-19T06:59:34.304Z,96855.63
2023-10-19T07:00:36.073Z,96849.31
2023-10-19T07:01:37.804Z,96850.59
2023-10-19T07:02:39.430Z,96852.47
2023-10-19T07:03:41.141Z,96852.88
2023-10-19T07:04:43.276Z,96851.66
2023-10-19T07:05:44.869Z,96862.03
2023-10-19T07:06:48.751Z,96855.22
2023-10-19T07:07:57.411Z,96850.84
2023-10-19T07:08:59.424Z,96853.38
2023-10-19T07:10:00.974Z,96854.38
2023-10-19T07:11:02.661Z,96847.56
2023-10-19T07:12:04.709Z,96846.13
2023-10-19T07:13:06.318Z,96853.78
2023-10-19T07:14:08.947Z,96838.19
2023-10-19T07:15:20.852Z,96836.13
2023-10-19T07:16:22.520Z,96837.13
2023-10-19T07:17:24.201Z,96823.94
2023-10-19T07:18:25.956Z,96829.16
2023-10-19T07:19:27.591Z,96819.59
2023-10-19T07:20:37.265Z,96821.59
2023-10-19T07:21:40.400Z,96816.75
2023-10-19T07:22:43.687Z,96813.34
2023-10-19T07:23:47.006Z,96826.09
2023-10-19T07:24:48.578Z,96818.44
2023-10-19T07:25:55.769Z,96820.88
2023-10-19T07:27:10.381Z,96826.31
2023-10-19T07:28:17.099Z,96817.22
2023-10-19T07:29:20.230Z,96817.88
2023-10-19T07:30:23.510Z,96814.69
2023-10-19T07:31:25.184Z,96806.81
2023-10-19T07:32:26.855Z,96806.94
2023-10-19T07:33:29.306Z,96803.56
2023-10-19T07:34:35.940Z,96804.97
2023-10-19T07:35:43.760Z,96804.81
2023-10-19T07:36:45.459Z,96816.31
2023-10-19T07:37:49.520Z,96812.63
2023-10-19T07:38:52.923Z,96806.75
2023-10-19T07:39:58.171Z,96807.03
2023-10-19T07:40:59.969Z,96806.47
2023-10-19T07:42:01.555Z,96812.06
2023-10-19T07:43:05.020Z,96815.75
2023-10-19T07:44:06.817Z,96815.81
2023-10-19T07:45:12.730Z,96814.44
2023-10-19T07:46:14.577Z,96801.59
2023-10-19T07:47:16.295Z,96791.72
2023-10-19T07:48:18.311Z,96795.59
2023-10-19T07:49:20.679Z,96798.75
2023-10-19T07:50:23.939Z,96794.38
2023-10-19T07:51:26.201Z,96789.19
2023-10-19T07:52:28.066Z,96783.38
2023-10-19T07:53:29.632Z,96783.78
2023-10-19T07:54:31.793Z,96783.91
2023-10-19T07:55:33.854Z,96781.66
2023-10-19T07:56:35.652Z,96785.34
2023-10-19T07:57:37.899Z,96777.38
2023-10-19T07:58:41.180Z,96782.59
2023-10-19T07:59:43.973Z,96784.41
2023-10-19T08:00:48.034Z,96789.50
2023-10-19T08:01:49.780Z,96781.09
2023-10-19T08:02:52.780Z,96781.72
2023-10-19T08:03:54.464Z,96788.03
2023-10-19T08:04:57.178Z,96783.22
2023-10-19T08:05:58.964Z,96781.81
2023-10-19T08:07:00.579Z,96782.72
2023-10-19T08:08:05.069Z,96783.97
2023-10-19T08:09:07.493Z,96784.31
2023-10-19T08:10:11.753Z,96783.97
2023-10-19T08:11:13.677Z,96788.00
2023-10-19T08:12:15.346Z,96784.97
2023-10-19T08:13:16.903Z,96791.28
2023-10-19T08:14:18.539Z,96783.47
2023-10-19T08:15:21.598Z,96779.91
2023-10-19T08:16:24.423Z,96774.81
2023-10-19T08:17:26.199Z,96784.00
2023-10-19T08:18:28.096Z,96781.56
2023-10-19T08:19:32.245Z,96785.44
2023-10-19T08:20:37.884Z,96783.59
2023-10-19T08:21:39.510Z,96781.66
2023-10-19T08:22:41.098Z,96780.47
2023-10-19T08:23:43.229Z,96780.22
2023-10-19T08:24:46.812Z,96786.84
2023-10-19T08:25:56.487Z,96787.56
2023-10-19T08:26:59.108Z,96785.03
2023-10-19T08:28:00.703Z,96784.97
2023-10-19T08:29:02.365Z,96791.13
2023-10-19T08:30:04.922Z,96790.47
2023-10-19T08:31:11.402Z,96792.78
2023-10-19T08:32:13.118Z,96793.16
2023-10-19T08:33:15.233Z,96785.81
2023-10-19T08:34:17.062Z,96792.59
2023-10-19T08:35:22.075Z,96793.44
2023-10-19T08:36:23.721Z,96794.63
2023-10-19T08:37:27.117Z,96798.19
2023-10-19T08:38:29.587Z,96803.41
2023-10-19T08:39:37.202Z,96796.44
2023-10-19T08:40:39.852Z,96798.84
2023-10-19T08:41:42.241Z,96807.09
2023-10-19T08:42:44.370Z,96805.22
2023-10-19T08:43:46.582Z,96812.97
2023-10-19T08:44:48.291Z,96804.09
2023-10-19T08:45:50.527Z,96810.75
2023-10-19T08:46:53.102Z,96817.78
2023-10-19T08:48:00.806Z,96812.03
2023-10-19T08:49:02.632Z,96814.44
2023-10-19T08:50:06.422Z,96815.38
2023-10-19T08:51:12.079Z,96808.50
2023-10-19T08:52:16.253Z,96809.69
2023-10-19T08:53:20.900Z,96813.19
2023-10-19T08:54:23.038Z,96808.16
2023-10-19T08:55:37.381Z,96798.97
2023-10-19T08:56:48.599Z,96804.06
2023-10-19T08:57:51.053Z,96802.91
2023-10-19T08:58:52.958Z,96799.78
2023-10-19T08:59:57.709Z,96791.19
2023-10-19T09:01:07.396Z,96789.78
2023-10-19T09:02:09.070Z,96791.41
2023-10-19T09:03:14.983Z,96789.94
2023-10-19T09:04:17.597Z,96792.09
2023-10-19T09:05:29.198Z,96771.81
2023-10-19T09:06:32.096Z,96778.72
2023-10-19T09:07:35.538Z,96785.78
2023-10-19T09:08:39.804Z,96782.69
2023-10-19T09:09:41.862Z,96786.59
2023-10-19T09:10:47.017Z,96795.94
2023-10-19T09:11:49.284Z,96788.63
2023-10-19T09:13:06.107Z,96797.66
2023-10-19T09:14:07.924Z,96786.94
2023-10-19T09:15:24.232Z,96791.00
2023-10-19T09:16:27.858Z,96788.00
2023-10-19T09:17:30.599Z,96792.34
2023-10-19T09:18:32.250Z,96783.59
2023-10-19T09:19:48.542Z,96790.25
2023-10-19T09:20:57.136Z,96789.09
2023-10-19T09:22:00.026Z,96787.59
2023-10-19T09:23:03.483Z,96787.47
2023-10-19T09:24:05.689Z,96789.81
2023-10-19T09:25:07.981Z,96782.19
2023-10-19T09:26:09.726Z,96782.66
2023-10-19T09:27:11.687Z,96782.44
2023-10-19T09:28:14.947Z,96784.78
2023-10-19T09:29:19.929Z,96782.50
2023-10-19T09:30:24.196Z,96787.16
2023-10-19T09:31:26.370Z,96776.31
2023-10-19T09:32:30.357Z,96769.00
2023-10-19T09:33:35.492Z,96773.28
2023-10-19T09:34:37.605Z,96772.84
2023-10-19T09:35:44.354Z,96760.84
2023-10-19T09:36:46.106Z,96763.19
2023-10-19T09:37:48.948Z,96762.38
2023-10-19T09:38:52.482Z,96758.56
2023-10-19T09:39:54.373Z,96754.69
2023-10-19T09:40:57.409Z,96768.25
2023-10-19T09:42:00.469Z,96755.47
2023-10-19T09:43:09.668Z,96750.78
2023-10-19T09:44:14.836Z,96757.00
2023-10-19T09:45:20.758Z,96759.28
2023-10-19T09:46:25.324Z,96754.28
2023-10-19T09:47:41.072Z,96758.88
2023-10-19T09:48:46.933Z,96759.25
2023-10-19T09:49:51.318Z,96761.63
2023-10-19T09:50:56.443Z,96759.38
2023-10-19T09:52:08.817Z,96760.19
2023-10-19T09:53:12.680Z,96766.41
2023-10-19T09:54:19.937Z,96767.13
2023-10-19T09:55:30.993Z,96753.91
2023-10-19T09:56:39.694Z,96757.03
2023-10-19T09:57:52.888Z,96758.63
2023-10-19T09:58:59.481Z,96757.47
2023-10-19T10:00:10.244Z,96760.63
2023-10-19T10:01:14.670Z,96758.31
2023-10-19T10:02:19.163Z,96754.44
2023-10-19T10:03:44.419Z,96741.69
2023-10-19T10:04:50.083Z,96749.44
2023-10-19T10:05:51.893Z,96753.34
2023-10-19T10:06:56.525Z,96743.25
2023-10-19T10:08:19.948Z,96741.69
2023-10-19T10:09:25.201Z,96742.47
2023-10-19T10:10:27.243Z,96734.31
2023-10-19T10:11:29.675Z,96734.72
2023-10-19T10:12:31.545Z,96721.50
2023-10-19T10:13:39.224Z,96726.16
2023-10-19T10:14:55.809Z,96722.28
2023-10-19T10:15:59.268Z,96721.13
2023-10-19T10:17:04.974Z,96719.59
2023-10-19T10:18:15.350Z,96717.63
2023-10-19T10:19:21.748Z,96720.34
2023-10-19T10:20:23.835Z,96707.91
2023-10-19T10:21:25.709Z,96705.22
2023-10-19T10:22:28.597Z,96687.75
2023-10-19T10:23:33.904Z,96688.13
2023-10-19T10:24:35.546Z,96685.78
2023-10-19T10:25:38.140Z,96689.66
2023-10-19T10:26:59.339Z,96680.34
2023-10-19T10:28:04.402Z,96678.78
2023-10-19T10:29:27.995Z,96678.78
2023-10-19T10:30:29.607Z,96677.25
2023-10-19T10:31:38.046Z,96678.03
2023-10-19T10:32:51.576Z,96676.88
2023-10-19T10:33:57.900Z,96671.41
2023-10-19T10:35:03.346Z,96677.22
2023-10-19T10:36:07.429Z,96667.88
2023-10-19T10:37:12.114Z,96670.22
2023-10-19T10:38:13.797Z,96670.16
2023-10-19T10:39:17.934Z,96668.22
2023-10-19T10:40:19.519Z,96672.50
2023-10-19T10:41:33.111Z,96665.56
2023-10-19T10:42:35.328Z,96659.34
2023-10-19T10:43:56.858Z,96653.56
2023-10-19T10:44:59.334Z,96650.06
2023-10-19T10:46:08.697Z,96642.28
2023-10-19T10:47:25.712Z,96638.38
2023-10-19T10:48:27.751Z,96633.72
2023-10-19T10:49:29.538Z,96633.69
2023-10-19T10:50:31.501Z,96630.19
2023-10-19T10:51:33.597Z,96619.31
2023-10-19T10:52:37.060Z,96625.50
2023-10-19T10:53:42.678Z,96611.50
2023-10-19T10:54:44.310Z,96620.44
2023-10-19T10:55:46.289Z,96622.00
2023-10-19T10:56:47.979Z,96626.66
2023-10-19T10:57:51.962Z,96623.53
2023-10-19T10:58:56.230Z,96625.53
2023-10-19T11:00:16.787Z,96625.91
2023-10-19T11:01:32.200Z,96626.72
2023-10-19T11:02:34.184Z,96625.56
2023-10-19T11:03:35.897Z,96624.41
2023-10-19T11:04:45.645Z,96620.13
2023-10-19T11:05:47.702Z,96613.53
2023-10-19T11:06:50.455Z,96610.47
2023-10-19T11:08:14.879Z,96605.84
2023-10-19T11:09:19.721Z,96601.19
2023-10-19T11:10:28.914Z,96606.59
2023-10-19T11:11:30.531Z,96610.06
2023-10-19T11:12:32.141Z,96608.91
2023-10-19T11:13:36.050Z,96610.41
2023-10-19T11:14:37.618Z,96608.09
2023-10-19T11:15:41.090Z,96606.16
2023-10-19T11:16:44.639Z,96615.84
2023-10-19T11:17:48.148Z,96608.09
2023-10-19T11:18:51.342Z,96606.91
2023-10-19T11:19:53.001Z,96608.84
2023-10-19T11:21:00.962Z,96604.97
2023-10-19T11:22:03.885Z,96606.50
2023-10-19T11:23:06.463Z,96609.59
2023-10-19T11:24:08.764Z,96602.25
2023-10-19T11:25:22.340Z,96598.34
2023-10-19T11:26:25.765Z,96600.28
2023-10-19T11:27:28.838Z,96597.97
2023-10-19T11:28:31.392Z,96596.44
2023-10-19T11:29:33.042Z,96584.75
2023-10-19T11:30:34.744Z,96575.00
2023-10-19T11:31:40.765Z,96584.75
2023-10-19T11:32:42.612Z,96575.88
2023-10-19T11:33:46.056Z,96582.44
2023-10-19T11:34:48.931Z,96584.78
2023-10-19T11:35:50.552Z,96570.00
2023-10-19T11:36:58.093Z,96580.06
2023-10-19T11:38:01.964Z,96576.16
2023-10-19T11:39:09.614Z,96575.41
2023-10-19T11:40:13.171Z,96573.84
2023-10-19T11:41:16.165Z,96574.63
2023-10-19T11:42:22.278Z,96566.47
2023-10-19T11:43:23.917Z,96574.59
2023-10-19T11:44:25.587Z,96577.72
2023-10-19T11:45:27.269Z,96569.13
2023-10-19T11:46:30.726Z,96565.22
2023-10-19T11:47:32.515Z,96559.75
2023-10-19T11:48:37.809Z,96558.28
2023-10-19T11:49:39.622Z,96558.28
2023-10-19T11:50:41.422Z,96555.22
2023-10-19T11:51:44.994Z,96552.91
2023-10-19T11:52:47.273Z,96552.53
2023-10-19T11:53:48.909Z,96545.91
2023-10-19T11:54:50.585Z,96555.97
2023-10-19T11:55:52.807Z,96552.06
2023-10-19T11:56:55.524Z,96555.94
2023-10-19T11:57:57.291Z,96552.06
2023-10-19T11:58:59.062Z,96550.53
2023-10-19T12:00:00.740Z,96552.84
2023-10-19T12:01:14.933Z,96551.69
2023-10-19T12:02:20.048Z,96543.84
2023-10-19T12:03:22.096Z,96552.34
2023-10-19T12:04:23.704Z,96551.88
2023-10-19T12:05:25.929Z,96553.44
2023-10-19T12:06:27.586Z,96547.97
2023-10-19T12:07:29.193Z,96551.03
2023-10-19T12:08:30.906Z,96549.06
2023-10-19T12:09:34.101Z,96554.47
2023-10-19T12:10:39.392Z,96538.56
2023-10-19T12:11:41.524Z,96538.91
2023-10-19T12:12:58.281Z,96537.78
2023-10-19T12:14:05.357Z,96547.16
2023-10-19T12:15:07.822Z,96549.47
2023-10-19T12:16:09.857Z,96548.34
2023-10-19T12:17:12.113Z,96540.31
2023-10-19T12:18:15.284Z,96545.41
2023-10-19T12:19:18.540Z,96534.94
2023-10-19T12:20:23.285Z,96540.34
2023-10-19T12:21:29.098Z,96538.72
2023-10-19T12:22:33.812Z,96533.25
2023-10-19T12:23:36.430Z,96540.69
2023-10-19T12:24:38.284Z,96539.47
2023-10-19T12:25:56.131Z,96537.09
2023-10-19T12:27:01.720Z,96536.69
2023-10-19T12:28:05.522Z,96526.97
2023-10-19T12:29:10.888Z,96535.56
2023-10-19T12:30:21.475Z,96536.34
2023-10-19T12:31:24.581Z,96531.69
2023-10-19T12:32:27.589Z,96538.66
2023-10-19T12:33:29.587Z,96529.81
2023-10-19T12:34:31.865Z,96528.72
2023-10-19T12:35:53.899Z,96525.63
2023-10-19T12:36:58.420Z,96526.34
2023-10-19T12:38:00.202Z,96526.72
2023-10-19T12:39:02.392Z,96520.84
2023-10-19T12:40:24.371Z,96527.06